Latest Weather Observations for Maitland Airport

IDN60801

Issued at 10:02 pm EST Thursday 22 June 2017 (issued every 30 minutes, with the page automatically refreshed every 10 minutes)

About weather observations | Map of weather stations | Latest weather observations for NSW | Other Formats
Station Details ID: 061428 Name: MAITLAND AIRPORT AWS Lat: -32.70 Lon: 151.49 Height: 27.5 m
Data from the previous 72 hours. | See also: Recent months for locations in New South Wales
Date/Time
EST
Temp
°C
App
Temp
°C
Dew
Point
°C
Rel
Hum
%
Delta-T
°C
Wind Press
QNH
hPa
Press
MSL
hPa
Rain since
9am
mm
Dir  Spd
km/h
Gust
km/h
Spd
kts
Gust
kts
22/10:00pm 8.8 7.8 8.7 99 0.0 WNW 4 6 2 3 1024.0 1024.0 0.0
22/09:51pm 8.1 6.3 8.0 99 0.0 WNW 7 9 4 5 1024.2 1024.2 0.0
22/09:30pm 8.5 6.4 8.4 99 0.0 WNW 9 11 5 6 1024.6 1024.6 0.0
22/09:22pm 7.9 6.1 7.8 99 0.0 WNW 7 9 4 5 1024.5 1024.5 0.0
22/09:00pm 8.7 8.4 8.6 99 0.0 CALM 0 0 0 0 1024.4 1024.4 0.0
22/08:48pm 9.1 8.9 9.0 99 0.0 CALM 0 0 0 0 1024.3 1024.3 0.0
22/08:47pm 9.0 8.8 8.9 99 0.0 CALM 0 0 0 0 1024.4 1024.4 0.0
22/08:30pm 8.6 8.3 8.5 99 0.0 CALM 0 0 0 0 1024.4 1024.4 0.0
22/08:13pm 9.4 9.3 9.3 99 0.0 CALM 0 0 0 0 1024.5 1024.5 0.0
22/08:00pm 9.5 9.4 9.4 99 0.0 CALM 0 0 0 0 1024.5 1024.5 0.0
22/07:30pm 10.4 10.5 10.2 99 0.1 CALM 0 0 0 0 1024.4 1024.4 0.0
22/07:00pm 10.5 10.6 10.2 98 0.2 CALM 0 0 0 0 1024.5 1024.5 0.0
22/06:30pm 10.7 10.7 9.8 94 0.5 CALM 0 0 0 0 1024.6 1024.6 0.0
22/06:00pm 12.6 13.0 11.2 91 0.7 CALM 0 0 0 0 1024.3 1024.3 0.0
22/05:30pm 12.8 13.0 10.5 86 1.2 CALM 0 0 0 0 1024.5 1024.5 0.0
22/05:00pm 14.9 13.8 10.7 76 2.2 WNW 7 9 4 5 1024.6 1024.6 0.0
22/04:30pm 16.5 15.7 11.0 70 3.0 WNW 6 11 3 6 1024.6 1024.6 0.0
22/04:00pm 18.4 18.2 10.3 59 4.3 WNW 2 7 1 4 1024.3 1024.3 0.0
22/03:30pm 18.6 17.4 10.4 59 4.4 WNW 7 9 4 5 1024.2 1024.2 0.0
22/03:00pm 18.9 17.9 11.0 60 4.3 WNW 7 9 4 5 1024.1 1024.1 0.0
22/02:30pm 19.0 18.2 11.1 60 4.3 WNW 6 13 3 7 1024.1 1024.1 0.0
22/02:00pm 18.9 18.0 11.2 61 4.2 WNW 7 15 4 8 1024.5 1024.5 0.0
22/01:30pm 18.5 17.3 11.6 64 3.8 WNW 9 15 5 8 1025.0 1025.0 0.0
22/01:00pm 18.1 16.9 11.7 66 3.5 WNW 9 15 5 8 1025.3 1025.3 0.0
22/12:30pm 17.1 14.9 10.9 67 3.3 WNW 13 20 7 11 1025.9 1025.9 0.0
22/12:00pm 17.1 15.0 11.2 68 3.2 NW 13 20 7 11 1026.4 1026.4 0.0
22/11:30am 16.5 14.5 11.4 72 2.8 NW 13 22 7 12 1027.0 1027.0 0.0
22/11:00am 15.4 12.6 11.2 76 2.2 NW 17 22 9 12 1027.5 1027.5 0.0
22/10:30am 14.1 11.6 11.1 82 1.6 WNW 15 24 8 13 1028.1 1028.1 0.0
22/10:00am 13.2 10.6 10.6 84 1.3 WNW 15 20 8 11 1028.3 1028.3 0.0
22/09:30am 12.7 10.0 10.4 86 1.2 WNW 15 22 8 12 1028.3 1028.3 0.0
22/09:00am 12.4 9.3 10.3 87 1.1 WNW 17 22 9 12 1028.1 1028.1 0.0
22/08:30am 11.2 8.3 9.6 90 0.8 WNW 15 19 8 10 1027.9 1027.9 0.0
22/08:00am 10.0 7.0 9.1 94 0.4 WNW 15 19 8 10 1027.8 1027.8 0.0
22/07:30am 9.3 6.1 8.5 95 0.4 W 15 19 8 10 1027.5 1027.5 0.0
22/07:00am 9.4 6.7 8.8 96 0.3 W 13 19 7 10 1027.3 1027.3 0.0
22/06:30am 8.9 6.5 8.5 97 0.2 W 11 19 6 10 1027.0 1027.0 0.0
22/06:00am 8.6 5.3 8.2 97 0.2 W 15 19 8 10 1026.6 1026.6 0.0
22/05:30am 8.9 6.1 8.5 97 0.2 W 13 15 7 8 1026.4 1026.4 0.0
22/05:00am 9.5 6.4 9.0 97 0.2 WNW 15 22 8 12 1026.3 1026.3 0.0
22/04:30am 9.2 5.7 8.9 98 0.1 W 17 20 9 11 1026.1 1026.1 0.0
22/04:00am 9.3 5.9 9.0 98 0.1 W 17 20 9 11 1026.0 1026.0 0.0
22/03:30am 9.3 6.2 9.0 98 0.1 W 15 19 8 10 1026.0 1026.0 0.0
22/03:00am 8.8 7.1 8.5 98 0.1 W 7 9 4 5 1026.2 1026.2 0.0
22/02:30am 9.0 5.9 8.9 99 0.0 WSW 15 17 8 9 1026.3 1026.3 0.0
22/02:00am 7.6 7.0 7.3 98 0.1 CALM 0 11 0 6 1026.3 1026.3 0.0
22/01:30am 8.4 6.2 7.8 96 0.3 SW 9 11 5 6 1026.4 1026.4 0.0
22/01:00am 10.1 7.6 9.8 98 0.1 SW 13 15 7 8 1026.4 1026.4 0.0
22/12:30am 8.1 7.6 8.0 99 0.0 CALM 0 0 0 0 1026.4 1026.4 0.0
22/12:00am 8.8 7.4 8.7 99 0.0 S 6 9 3 5 1026.8 1026.8 0.0
 
Date/Time
EST
Temp
°C
App
Temp
°C
Dew
Point
°C
Rel
Hum
%
Delta-T
°C
Wind Press
QNH
hPa
Press
MSL
hPa
Rain since
9am
mm
Dir  Spd
km/h
Gust
km/h
Spd
kts
Gust
kts
21/11:30pm 9.0 8.4 8.9 99 0.0 S 2 7 1 4 1027.0 1027.0 0.0
21/11:00pm 9.1 8.8 8.6 97 0.2 CALM 0 0 0 0 1026.8 1026.8 0.0
21/10:30pm 9.5 8.1 8.7 95 0.4 S 6 7 3 4 1027.0 1027.0 0.0
21/10:00pm 10.1 9.4 8.7 91 0.7 S 2 6 1 3 1027.2 1027.2 0.0
21/09:30pm 12.2 11.2 11.1 93 0.6 S 7 9 4 5 1027.5 1027.5 0.0
21/09:00pm 13.0 11.6 10.9 87 1.1 S 9 11 5 6 1027.5 1027.5 0.0
21/08:30pm 11.6 10.5 9.9 89 0.9 S 6 7 3 4 1027.3 1027.3 0.0
21/08:00pm 13.8 12.8 11.1 84 1.4 S 7 11 4 6 1027.1 1027.1 0.0
21/07:30pm 13.9 13.0 11.4 85 1.3 S 7 9 4 5 1026.7 1026.7 0.0
21/07:00pm 14.6 13.8 11.7 83 1.6 S 7 9 4 5 1026.3 1026.3 0.0
21/06:30pm 15.0 14.2 11.8 81 1.7 S 7 9 4 5 1026.0 1026.0 0.0
21/06:00pm 14.7 13.6 12.0 84 1.5 S 9 13 5 7 1025.6 1025.6 0.0
21/05:30pm 12.7 13.1 11.1 90 0.8 CALM 0 0 0 0 1025.3 1025.3 0.0
21/05:00pm 14.0 13.8 10.4 79 1.9 S 2 6 1 3 1024.9 1024.9 0.0
21/04:30pm 16.4 15.1 11.3 72 2.8 S 9 11 5 6 1025.0 1025.0 0.0
21/04:00pm 17.4 15.3 11.2 67 3.3 S 13 15 7 8 1024.8 1024.8 0.0
21/03:30pm 17.7 15.6 11.3 66 3.5 S 13 17 7 9 1024.6 1024.6 0.0
21/03:00pm 17.9 15.8 11.2 65 3.6 SSW 13 15 7 8 1024.4 1024.4 0.0
21/02:30pm 18.6 16.9 9.7 56 4.7 SSE 9 19 5 10 1024.3 1024.3 0.0
21/02:00pm 18.3 15.8 9.6 57 4.6 S 13 20 7 11 1024.4 1024.4 0.0
21/01:30pm 18.2 16.7 9.3 56 4.7 WSW 7 13 4 7 1024.4 1024.4 0.0
21/01:00pm 17.9 16.0 10.5 62 3.9 WNW 11 19 6 10 1024.6 1024.6 0.0
21/12:30pm 17.5 15.9 11.5 68 3.3 NW 11 19 6 10 1024.8 1024.8 0.0
21/12:00pm 16.1 14.7 12.3 78 2.1 NW 11 20 6 11 1025.3 1025.3 0.0
21/11:30am 14.5 12.3 12.2 86 1.2 NW 15 20 8 11 1025.6 1025.6 0.0
21/11:00am 13.3 11.0 11.9 91 0.7 NW 15 22 8 12 1025.9 1025.9 0.0
21/10:30am 11.9 8.7 11.3 96 0.3 NW 19 28 10 15 1025.9 1025.9 0.0
21/10:00am 11.3 8.4 11.1 99 0.1 WNW 17 22 9 12 1026.0 1026.0 0.0
21/09:40am 10.8 8.5 10.6 99 0.1 WNW 13 20 7 11 1026.1 1026.1 0.0
21/09:30am 10.5 8.5 10.3 99 0.1 WNW 11 15 6 8 1026.0 1026.0 0.0
21/09:00am 9.5 7.3 9.4 99 0.0 WNW 11 15 6 8 1025.5 1025.5 0.4
21/08:42am 9.2 6.9 9.1 99 0.0 WNW 11 15 6 8 1025.5 1025.5 0.4
21/08:30am 8.9 6.9 8.8 99 0.0 WNW 9 15 5 8 1025.3 1025.3 0.4
21/08:00am 8.8 5.3 8.7 99 0.0 WNW 17 24 9 13 1024.9 1024.9 0.4
21/07:30am 9.1 6.4 9.0 99 0.0 WNW 13 22 7 12 1024.7 1024.7 0.4
21/07:00am 9.3 6.7 9.2 99 0.0 WNW 13 19 7 10 1024.3 1024.3 0.4
21/06:30am 9.0 6.7 8.9 99 0.0 WNW 11 17 6 9 1024.0 1024.0 0.4
21/06:00am 9.2 6.5 9.1 99 0.0 W 13 19 7 10 1023.6 1023.6 0.4
21/05:30am 9.4 6.8 9.3 99 0.0 WNW 13 19 7 10 1023.2 1023.2 0.4
21/05:00am 9.3 6.3 9.2 99 0.0 WNW 15 22 8 12 1023.1 1023.1 0.4
21/04:30am 8.8 6.4 8.7 99 0.0 WSW 11 15 6 8 1022.8 1022.8 0.4
21/04:00am 9.1 8.1 9.0 99 0.0 SSE 4 11 2 6 1022.9 1022.9 0.4
21/03:30am 9.1 8.1 9.0 99 0.0 SSE 4 9 2 5 1023.2 1023.2 0.2
21/03:00am 8.4 8.0 8.3 99 0.0 CALM 0 0 0 0 1023.6 1023.6 0.2
21/02:30am 7.3 6.7 7.2 99 0.0 CALM 0 0 0 0 1023.7 1023.7 0.2
21/02:00am 8.4 6.7 8.3 99 0.0 SSE 7 11 4 6 1023.9 1023.9 0.2
21/01:30am 7.7 7.1 7.6 99 0.0 CALM 0 0 0 0 1024.1 1024.1 0.2
21/01:00am 7.3 6.7 7.2 99 0.0 CALM 0 0 0 0 1024.1 1024.1 0.2
21/12:30am 8.0 7.5 7.9 99 0.0 CALM 0 0 0 0 1024.3 1024.3 0.2
21/12:00am 9.1 7.6 9.0 99 0.0 SSE 7 11 4 6 1024.7 1024.7 0.2
 
Date/Time
EST
Temp
°C
App
Temp
°C
Dew
Point
°C
Rel
Hum
%
Delta-T
°C
Wind Press
QNH
hPa
Press
MSL
hPa
Rain since
9am
mm
Dir  Spd
km/h
Gust
km/h
Spd
kts
Gust
kts
20/11:30pm 8.4 8.0 8.3 99 0.0 CALM 0 0 0 0 1024.8 1024.8 0.2
20/11:26pm 8.3 7.9 8.2 99 0.0 CALM 0 0 0 0 1024.8 1024.8 0.2
20/11:00pm 8.4 8.0 8.3 99 0.0 CALM 0 0 0 0 1025.0 1025.0 0.2
20/10:49pm 9.2 9.0 9.1 99 0.0 CALM 0 0 0 0 1025.0 1025.0 0.2
20/10:30pm 9.2 9.0 9.1 99 0.0 CALM 0 0 0 0 1025.1 1025.1 0.2
20/10:23pm 9.6 9.5 9.5 99 0.0 CALM 0 0 0 0 1025.2 1025.2 0.2
20/10:00pm 10.1 10.2 10.0 99 0.1 CALM 0 0 0 0 1025.2 1025.2 0.2
20/09:42pm 9.8 9.8 9.7 99 0.1 CALM 0 0 0 0 1025.2 1025.2 0.2
20/09:30pm 10.2 10.3 10.1 99 0.1 CALM 0 0 0 0 1025.2 1025.2 0.2
20/09:00pm 10.2 10.3 10.1 99 0.1 CALM 0 0 0 0 1025.4 1025.4 0.2
20/08:30pm 10.3 10.4 10.1 99 0.1 CALM 0 0 0 0 1025.3 1025.3 0.2
20/08:23pm 10.3 10.4 10.1 99 0.1 CALM 0 0 0 0 1025.3 1025.3 0.2
20/08:00pm 11.3 11.7 11.1 99 0.1 CALM 0 0 0 0 1025.1 1025.1 0.2
20/07:35pm 11.5 11.9 11.3 99 0.1 CALM 0 0 0 0 1025.1 1025.1 0.2
20/07:30pm 11.5 11.9 11.3 99 0.1 CALM 0 0 0 0 1025.1 1025.1 0.2
20/07:12pm 11.0 11.2 10.7 98 0.2 CALM 0 0 0 0 1025.0 1025.0 0.2
20/07:00pm 11.5 11.8 11.0 97 0.3 CALM 0 0 0 0 1025.0 1025.0 0.2
20/06:30pm 12.4 13.0 11.8 96 0.3 CALM 0 0 0 0 1025.0 1025.0 0.2
20/06:00pm 12.8 12.5 11.4 91 0.7 SSE 4 6 2 3 1024.8 1024.8 0.2
20/05:30pm 15.1 15.9 12.6 85 1.4 CALM 0 0 0 0 1024.5 1024.5 0.2
20/05:00pm 15.8 15.4 12.4 80 1.9 SSE 6 6 3 3 1024.4 1024.4 0.2
20/04:30pm 17.1 16.1 12.2 73 2.7 SSE 9 13 5 7 1024.3 1024.3 0.2
20/04:00pm 18.0 16.8 12.7 71 2.9 SSE 11 15 6 8 1024.3 1024.3 0.2
20/03:30pm 17.8 15.7 12.3 70 3.0 SSE 15 19 8 10 1024.4 1024.4 0.2
20/03:00pm 19.5 18.1 12.3 63 4.0 S 11 15 6 8 1024.5 1024.5 0.0
20/02:30pm 19.0 17.6 12.3 65 3.7 SE 11 17 6 9 1024.4 1024.4 0.0
20/02:00pm 18.5 16.0 12.3 67 3.4 S 17 22 9 12 1024.4 1024.4 0.0
20/01:30pm 18.6 16.5 12.4 67 3.5 SSE 15 20 8 11 1024.7 1024.7 0.0
20/01:00pm 18.6 16.9 12.4 67 3.4 SSE 13 19 7 10 1025.2 1025.2 0.0
20/12:30pm 19.2 17.5 12.5 65 3.8 S 13 19 7 10 1025.7 1025.7 0.0
20/12:00pm 18.6 17.0 12.8 69 3.2 SSW 13 17 7 9 1026.3 1026.3 0.0
20/11:30am 17.9 17.2 14.2 79 2.1 WNW 11 15 6 8 1026.8 1026.8 0.0
20/11:00am 17.7 18.0 14.6 82 1.8 SW 6 9 3 5 1027.2 1027.2 0.0
20/10:30am 16.3 17.7 14.3 88 1.1 CALM 0 7 0 4 1027.4 1027.4 0.0
20/10:00am 15.0 16.2 14.8 99 0.1 SW 2 7 1 4 1027.5 1027.5 0.0
20/09:30am 13.4 13.3 13.2 99 0.1 SW 6 7 3 4 1027.4 1027.4 0.0
20/09:00am 11.9 11.1 11.7 99 0.1 SW 7 9 4 5 1027.5 1027.5 0.0
20/08:30am 10.0 10.0 9.9 99 0.1 CALM 0 0 0 0 1027.6 1027.6 0.0
20/08:25am 10.0 10.0 9.9 99 0.1 CALM 0 0 0 0 1027.6 1027.6 0.0
20/08:18am 9.6 9.1 9.5 99 0.0 SW 2 7 1 4 1027.5 1027.5 0.0
20/08:05am 9.0 7.6 8.9 99 0.0 SW 6 7 3 4 1027.3 1027.3 0.0
20/08:00am 9.3 8.0 9.2 99 0.0 SW 6 7 3 4 1027.3 1027.3 0.0
20/07:57am 9.3 8.0 9.2 99 0.0 SW 6 9 3 5 1027.3 1027.3 0.0
20/07:30am 8.8 7.2 8.7 99 0.0 SW 7 15 4 8 1027.1 1027.1 0.0
20/07:29am 8.9 7.5 8.8 99 0.0 SW 6 15 3 8 1027.2 1027.2 0.0
20/07:00am 7.1 6.4 7.0 99 0.0 CALM 0 0 0 0 1027.2 1027.2 0.0
20/06:30am 8.3 7.9 8.2 99 0.0 CALM 0 0 0 0 1026.9 1026.9 0.0
20/06:00am 9.2 7.3 9.1 99 0.0 S 9 15 5 8 1026.5 1026.5 0.0
20/05:30am 8.1 7.3 8.0 99 0.0 S 2 7 1 4 1026.3 1026.3 0.0
20/05:19am 8.2 7.0 8.1 99 0.0 S 4 9 2 5 1026.4 1026.4 0.0
20/05:00am 9.1 7.7 9.0 99 0.0 S 6 9 3 5 1026.4 1026.4 0.0
20/04:30am 8.8 7.2 8.7 99 0.0 S 7 11 4 6 1026.5 1026.5 0.0
20/04:00am 8.0 7.5 7.9 99 0.0 CALM 0 6 0 3 1026.6 1026.6 0.0
20/03:58am 7.7 6.8 7.6 99 0.0 S 2 6 1 3 1026.6 1026.6 0.0
20/03:44am 8.8 7.4 8.7 99 0.0 S 6 7 3 4 1026.6 1026.6 0.0
20/03:30am 9.0 7.4 8.9 99 0.0 S 7 9 4 5 1026.6 1026.6 0.0
20/03:00am 9.1 8.9 9.0 99 0.0 CALM 0 0 0 0 1026.8 1026.8 0.0
20/02:30am 10.8 9.9 10.6 99 0.1 S 6 9 3 5 1027.1 1027.1 0.0
20/02:00am 9.8 9.8 9.7 99 0.0 CALM 0 0 0 0 1027.2 1027.2 0.0
20/01:30am 9.7 9.6 9.6 99 0.0 CALM 0 0 0 0 1027.4 1027.4 0.0
20/01:00am 10.0 9.3 9.9 99 0.1 S 4 7 2 4 1027.3 1027.3 0.0
20/12:57am 10.2 9.1 10.1 99 0.1 S 6 9 3 5 1027.3 1027.3 0.0
20/12:48am 10.9 10.0 10.7 99 0.1 S 6 9 3 5 1027.3 1027.3 0.0
20/12:30am 10.3 9.2 10.1 99 0.1 S 6 9 3 5 1027.5 1027.5 0.0
20/12:09am 10.7 10.9 10.5 99 0.1 CALM 0 0 0 0 1027.7 1027.7 0.0
20/12:07am 11.0 11.3 10.8 99 0.1 CALM 0 0 0 0 1027.6 1027.6 0.0
20/12:00am 11.5 11.5 11.3 99 0.1 S 2 6 1 3 1027.7 1027.7 0.0
 
Date/Time
EST
Temp
°C
App
Temp
°C
Dew
Point
°C
Rel
Hum
%
Delta-T
°C
Wind Press
QNH
hPa
Press
MSL
hPa
Rain since
9am
mm
Dir  Spd
km/h
Gust
km/h
Spd
kts
Gust
kts
19/11:47pm 10.5 9.9 10.3 99 0.1 S 4 9 2 5 1027.7 1027.7 0.0
19/11:30pm 11.4 11.8 11.2 99 0.1 CALM 0 0 0 0 1027.8 1027.8 0.0
19/11:00pm 11.5 11.9 11.3 99 0.1 CALM 0 0 0 0 1028.0 1028.0 0.0
19/10:30pm 11.8 11.5 11.6 99 0.1 S 4 6 2 3 1028.1 1028.1 0.0

Other Formats:

Comma delimited format used in spreadsheet applications
http://www.bom.gov.au/fwo/IDN60801/IDN60801.94650.axf

JavaScript Object Notation format (JSON) in row-major order
http://www.bom.gov.au/fwo/IDN60801/IDN60801.94650.json